sensor_id;sensor_type;location;lat;lon;timestamp;temperature;humidity
66708;DHT22;53622;0.000;0.000;2023-02-10T00:00:26;17.40;42.70
66708;DHT22;53622;0.000;0.000;2023-02-10T00:02:57;17.40;42.70
66708;DHT22;53622;0.000;0.000;2023-02-10T00:05:26;17.40;42.70
66708;DHT22;53622;0.000;0.000;2023-02-10T00:07:55;17.30;42.70
66708;DHT22;53622;0.000;0.000;2023-02-10T00:10:24;17.30;42.70
66708;DHT22;53622;0.000;0.000;2023-02-10T00:12:54;17.30;42.70
66708;DHT22;53622;0.000;0.000;2023-02-10T00:15:23;17.30;42.70
66708;DHT22;53622;0.000;0.000;2023-02-10T00:17:52;17.30;42.80
66708;DHT22;53622;0.000;0.000;2023-02-10T00:20:24;17.30;42.70
66708;DHT22;53622;0.000;0.000;2023-02-10T00:22:54;17.30;42.80
66708;DHT22;53622;0.000;0.000;2023-02-10T00:25:23;17.20;42.80
66708;DHT22;53622;0.000;0.000;2023-02-10T00:27:52;17.20;42.80
66708;DHT22;53622;0.000;0.000;2023-02-10T00:30:21;17.20;42.80
66708;DHT22;53622;0.000;0.000;2023-02-10T00:32:50;17.20;42.80
66708;DHT22;53622;0.000;0.000;2023-02-10T00:35:20;17.20;42.80
66708;DHT22;53622;0.000;0.000;2023-02-10T00:37:51;17.20;42.80
66708;DHT22;53622;0.000;0.000;2023-02-10T00:40:20;17.20;42.90
66708;DHT22;53622;0.000;0.000;2023-02-10T00:42:49;17.10;42.80
66708;DHT22;53622;0.000;0.000;2023-02-10T00:45:18;17.10;42.80
66708;DHT22;53622;0.000;0.000;2023-02-10T00:47:48;17.10;42.90
66708;DHT22;53622;0.000;0.000;2023-02-10T00:50:18;17.10;42.90
66708;DHT22;53622;0.000;0.000;2023-02-10T00:52:50;17.10;42.80
66708;DHT22;53622;0.000;0.000;2023-02-10T00:55:19;17.00;42.80
66708;DHT22;53622;0.000;0.000;2023-02-10T00:57:48;17.00;42.90
66708;DHT22;53622;0.000;0.000;2023-02-10T01:00:18;17.00;42.90
66708;DHT22;53622;0.000;0.000;2023-02-10T01:02:47;17.00;42.90
66708;DHT22;53622;0.000;0.000;2023-02-10T01:05:16;17.00;42.90
66708;DHT22;53622;0.000;0.000;2023-02-10T01:07:46;17.00;42.90
66708;DHT22;53622;0.000;0.000;2023-02-10T01:10:17;17.00;42.90
66708;DHT22;53622;0.000;0.000;2023-02-10T01:12:46;17.00;43.00
66708;DHT22;53622;0.000;0.000;2023-02-10T01:15:16;17.00;42.90
66708;DHT22;53622;0.000;0.000;2023-02-10T01:17:45;17.00;42.90
66708;DHT22;53622;0.000;0.000;2023-02-10T01:20:14;16.90;42.90
66708;DHT22;53622;0.000;0.000;2023-02-10T01:22:44;16.90;42.90
66708;DHT22;53622;0.000;0.000;2023-02-10T01:25:13;16.90;42.90
66708;DHT22;53622;0.000;0.000;2023-02-10T01:27:44;16.90;42.90
66708;DHT22;53622;0.000;0.000;2023-02-10T01:30:13;16.90;42.90
66708;DHT22;53622;0.000;0.000;2023-02-10T01:32:43;16.90;43.00
66708;DHT22;53622;0.000;0.000;2023-02-10T01:35:12;16.90;43.00
66708;DHT22;53622;0.000;0.000;2023-02-10T01:37:41;16.90;43.00
66708;DHT22;53622;0.000;0.000;2023-02-10T01:40:11;16.90;42.90
66708;DHT22;53622;0.000;0.000;2023-02-10T01:42:40;16.80;42.90
66708;DHT22;53622;0.000;0.000;2023-02-10T01:45:19;16.80;42.90
66708;DHT22;53622;0.000;0.000;2023-02-10T01:47:51;16.80;42.90
66708;DHT22;53622;0.000;0.000;2023-02-10T01:50:24;16.80;42.90
66708;DHT22;53622;0.000;0.000;2023-02-10T01:52:55;16.80;43.00
66708;DHT22;53622;0.000;0.000;2023-02-10T01:55:28;16.80;42.90
66708;DHT22;53622;0.000;0.000;2023-02-10T01:58:02;16.80;42.90
66708;DHT22;53622;0.000;0.000;2023-02-10T02:00:34;16.80;42.90
66708;DHT22;53622;0.000;0.000;2023-02-10T02:03:04;16.70;42.80
66708;DHT22;53622;0.000;0.000;2023-02-10T02:05:35;16.70;42.90
66708;DHT22;53622;0.000;0.000;2023-02-10T02:08:07;16.70;42.90
66708;DHT22;53622;0.000;0.000;2023-02-10T02:10:47;16.70;42.90
66708;DHT22;53622;0.000;0.000;2023-02-10T02:13:25;16.70;43.00
66708;DHT22;53622;0.000;0.000;2023-02-10T02:16:06;16.70;43.00
66708;DHT22;53622;0.000;0.000;2023-02-10T02:18:43;16.70;43.00
66708;DHT22;53622;0.000;0.000;2023-02-10T02:21:46;16.60;43.00
66708;DHT22;53622;0.000;0.000;2023-02-10T02:24:56;16.60;43.00
66708;DHT22;53622;0.000;0.000;2023-02-10T02:27:48;16.60;43.00
66708;DHT22;53622;0.000;0.000;2023-02-10T02:30:37;16.60;43.00
66708;DHT22;53622;0.000;0.000;2023-02-10T02:33:14;16.60;43.10
66708;DHT22;53622;0.000;0.000;2023-02-10T02:35:53;16.50;43.10
66708;DHT22;53622;0.000;0.000;2023-02-10T02:38:24;16.50;43.10
66708;DHT22;53622;0.000;0.000;2023-02-10T02:40:54;16.50;43.10
66708;DHT22;53622;0.000;0.000;2023-02-10T02:43:23;16.50;43.10
66708;DHT22;53622;0.000;0.000;2023-02-10T02:45:57;16.50;43.10
66708;DHT22;53622;0.000;0.000;2023-02-10T02:48:47;16.50;43.00
66708;DHT22;53622;0.000;0.000;2023-02-10T02:51:24;16.50;43.10
66708;DHT22;53622;0.000;0.000;2023-02-10T02:54:00;16.50;43.10
66708;DHT22;53622;0.000;0.000;2023-02-10T02:56:37;16.50;43.10
66708;DHT22;53622;0.000;0.000;2023-02-10T02:59:12;16.50;43.10
66708;DHT22;53622;0.000;0.000;2023-02-10T03:01:46;16.50;43.10
66708;DHT22;53622;0.000;0.000;2023-02-10T03:04:19;16.40;43.00
66708;DHT22;53622;0.000;0.000;2023-02-10T03:06:48;16.40;43.00
66708;DHT22;53622;0.000;0.000;2023-02-10T03:09:18;16.40;43.00
66708;DHT22;53622;0.000;0.000;2023-02-10T03:11:47;16.40;43.00
66708;DHT22;53622;0.000;0.000;2023-02-10T03:14:16;16.40;43.00
66708;DHT22;53622;0.000;0.000;2023-02-10T03:16:46;16.40;43.00
66708;DHT22;53622;0.000;0.000;2023-02-10T03:19:15;16.40;43.00
66708;DHT22;53622;0.000;0.000;2023-02-10T03:21:46;16.40;43.00
66708;DHT22;53622;0.000;0.000;2023-02-10T03:24:15;16.40;43.00
66708;DHT22;53622;0.000;0.000;2023-02-10T03:26:45;16.30;43.00
66708;DHT22;53622;0.000;0.000;2023-02-10T03:29:15;16.40;43.00
66708;DHT22;53622;0.000;0.000;2023-02-10T03:31:44;16.30;43.00
66708;DHT22;53622;0.000;0.000;2023-02-10T03:34:14;16.30;43.10
66708;DHT22;53622;0.000;0.000;2023-02-10T03:36:43;16.30;43.00
66708;DHT22;53622;0.000;0.000;2023-02-10T03:39:14;16.30;43.10
66708;DHT22;53622;0.000;0.000;2023-02-10T03:41:43;16.30;43.00
66708;DHT22;53622;0.000;0.000;2023-02-10T03:44:12;16.30;43.00
66708;DHT22;53622;0.000;0.000;2023-02-10T03:46:42;16.30;43.00
66708;DHT22;53622;0.000;0.000;2023-02-10T03:49:11;16.30;43.00
66708;DHT22;53622;0.000;0.000;2023-02-10T03:51:40;16.30;43.00
66708;DHT22;53622;0.000;0.000;2023-02-10T03:54:09;16.30;43.00
66708;DHT22;53622;0.000;0.000;2023-02-10T03:56:40;16.30;43.10
66708;DHT22;53622;0.000;0.000;2023-02-10T03:59:09;16.20;43.00
66708;DHT22;53622;0.000;0.000;2023-02-10T04:01:39;16.20;43.00
66708;DHT22;53622;0.000;0.000;2023-02-10T04:04:08;16.20;43.10
66708;DHT22;53622;0.000;0.000;2023-02-10T04:06:37;16.20;43.00
66708;DHT22;53622;0.000;0.000;2023-02-10T04:09:07;16.20;43.00
66708;DHT22;53622;0.000;0.000;2023-02-10T04:11:36;16.20;43.00
66708;DHT22;53622;0.000;0.000;2023-02-10T04:14:06;16.20;43.00
66708;DHT22;53622;0.000;0.000;2023-02-10T04:16:36;16.20;43.10
66708;DHT22;53622;0.000;0.000;2023-02-10T04:19:06;16.20;43.00
66708;DHT22;53622;0.000;0.000;2023-02-10T04:21:36;16.20;43.00
66708;DHT22;53622;0.000;0.000;2023-02-10T04:24:05;16.20;43.00
66708;DHT22;53622;0.000;0.000;2023-02-10T04:26:35;16.20;43.00
66708;DHT22;53622;0.000;0.000;2023-02-10T04:29:05;16.10;43.00
66708;DHT22;53622;0.000;0.000;2023-02-10T04:31:34;16.10;43.00
66708;DHT22;53622;0.000;0.000;2023-02-10T04:34:04;16.10;43.00
66708;DHT22;53622;0.000;0.000;2023-02-10T04:36:33;16.10;43.00
66708;DHT22;53622;0.000;0.000;2023-02-10T04:39:03;16.10;43.00
66708;DHT22;53622;0.000;0.000;2023-02-10T04:41:32;16.10;43.00
66708;DHT22;53622;0.000;0.000;2023-02-10T04:44:01;16.10;43.00
66708;DHT22;53622;0.000;0.000;2023-02-10T04:46:32;16.10;42.90
66708;DHT22;53622;0.000;0.000;2023-02-10T04:49:01;16.10;43.00
66708;DHT22;53622;0.000;0.000;2023-02-10T04:51:30;16.10;43.00
66708;DHT22;53622;0.000;0.000;2023-02-10T04:54:00;16.10;43.00
66708;DHT22;53622;0.000;0.000;2023-02-10T04:56:29;16.10;43.00
66708;DHT22;53622;0.000;0.000;2023-02-10T04:58:58;16.10;42.90
66708;DHT22;53622;0.000;0.000;2023-02-10T05:01:28;16.10;42.90
66708;DHT22;53622;0.000;0.000;2023-02-10T05:03:58;16.10;42.90
66708;DHT22;53622;0.000;0.000;2023-02-10T05:06:28;16.10;42.90
66708;DHT22;53622;0.000;0.000;2023-02-10T05:08:57;16.10;43.00
66708;DHT22;53622;0.000;0.000;2023-02-10T05:11:26;16.00;42.90
66708;DHT22;53622;0.000;0.000;2023-02-10T05:13:56;16.00;42.90
66708;DHT22;53622;0.000;0.000;2023-02-10T05:16:26;16.00;43.00
66708;DHT22;53622;0.000;0.000;2023-02-10T05:18:55;16.00;42.90
66708;DHT22;53622;0.000;0.000;2023-02-10T05:21:26;16.00;42.90
66708;DHT22;53622;0.000;0.000;2023-02-10T05:23:57;16.00;42.90
66708;DHT22;53622;0.000;0.000;2023-02-10T05:26:27;16.00;42.90
66708;DHT22;53622;0.000;0.000;2023-02-10T05:28:56;16.00;42.90
66708;DHT22;53622;0.000;0.000;2023-02-10T05:31:25;16.00;42.90
66708;DHT22;53622;0.000;0.000;2023-02-10T05:33:54;16.00;42.90
66708;DHT22;53622;0.000;0.000;2023-02-10T05:36:25;16.00;42.90
66708;DHT22;53622;0.000;0.000;2023-02-10T05:38:54;16.00;42.90
66708;DHT22;53622;0.000;0.000;2023-02-10T05:41:41;16.00;42.90
66708;DHT22;53622;0.000;0.000;2023-02-10T05:44:10;16.00;42.90
66708;DHT22;53622;0.000;0.000;2023-02-10T05:46:40;15.90;42.90
66708;DHT22;53622;0.000;0.000;2023-02-10T05:49:10;15.90;42.90
66708;DHT22;53622;0.000;0.000;2023-02-10T05:51:41;15.90;42.90
66708;DHT22;53622;0.000;0.000;2023-02-10T05:54:10;15.90;42.90
66708;DHT22;53622;0.000;0.000;2023-02-10T05:56:40;15.90;43.00
66708;DHT22;53622;0.000;0.000;2023-02-10T05:59:11;15.90;43.10
66708;DHT22;53622;0.000;0.000;2023-02-10T06:01:42;15.90;43.30
66708;DHT22;53622;0.000;0.000;2023-02-10T06:04:11;16.00;43.20
66708;DHT22;53622;0.000;0.000;2023-02-10T06:06:42;16.00;43.00
66708;DHT22;53622;0.000;0.000;2023-02-10T06:09:11;16.00;43.00
66708;DHT22;53622;0.000;0.000;2023-02-10T06:11:41;16.10;43.00
66708;DHT22;53622;0.000;0.000;2023-02-10T06:14:10;16.10;42.90
66708;DHT22;53622;0.000;0.000;2023-02-10T06:16:39;16.00;42.90
66708;DHT22;53622;0.000;0.000;2023-02-10T06:19:08;16.00;43.00
66708;DHT22;53622;0.000;0.000;2023-02-10T06:21:37;16.00;43.10
66708;DHT22;53622;0.000;0.000;2023-02-10T06:24:08;16.00;43.20
66708;DHT22;53622;0.000;0.000;2023-02-10T06:26:39;15.90;43.20
66708;DHT22;53622;0.000;0.000;2023-02-10T06:29:08;16.00;43.50
66708;DHT22;53622;0.000;0.000;2023-02-10T06:31:37;16.00;43.60
66708;DHT22;53622;0.000;0.000;2023-02-10T06:34:07;16.10;43.70
66708;DHT22;53622;0.000;0.000;2023-02-10T06:36:37;16.20;43.60
66708;DHT22;53622;0.000;0.000;2023-02-10T06:39:08;16.40;43.60
66708;DHT22;53622;0.000;0.000;2023-02-10T06:41:37;16.60;43.60
66708;DHT22;53622;0.000;0.000;2023-02-10T06:44:07;16.90;43.80
66708;DHT22;53622;0.000;0.000;2023-02-10T06:46:36;17.20;44.00
66708;DHT22;53622;0.000;0.000;2023-02-10T06:49:06;17.50;43.50
66708;DHT22;53622;0.000;0.000;2023-02-10T06:51:35;17.70;43.60
66708;DHT22;53622;0.000;0.000;2023-02-10T06:54:04;17.90;43.40
66708;DHT22;53622;0.000;0.000;2023-02-10T06:56:35;18.00;43.30
66708;DHT22;53622;0.000;0.000;2023-02-10T06:59:05;18.20;43.10
66708;DHT22;53622;0.000;0.000;2023-02-10T07:01:34;18.40;43.00
66708;DHT22;53622;0.000;0.000;2023-02-10T07:04:04;18.50;43.00
66708;DHT22;53622;0.000;0.000;2023-02-10T07:06:33;18.60;42.50
66708;DHT22;53622;0.000;0.000;2023-02-10T07:09:03;18.70;42.80
66708;DHT22;53622;0.000;0.000;2023-02-10T07:11:33;18.90;42.60
66708;DHT22;53622;0.000;0.000;2023-02-10T07:14:04;19.00;42.60
66708;DHT22;53622;0.000;0.000;2023-02-10T07:16:33;19.10;42.30
66708;DHT22;53622;0.000;0.000;2023-02-10T07:19:02;19.10;42.10
66708;DHT22;53622;0.000;0.000;2023-02-10T07:21:32;19.10;41.90
66708;DHT22;53622;0.000;0.000;2023-02-10T07:24:02;19.20;42.20
66708;DHT22;53622;0.000;0.000;2023-02-10T07:26:32;19.20;41.90
66708;DHT22;53622;0.000;0.000;2023-02-10T07:29:02;19.20;41.90
66708;DHT22;53622;0.000;0.000;2023-02-10T07:31:32;19.20;41.80
66708;DHT22;53622;0.000;0.000;2023-02-10T07:34:03;19.10;41.70
66708;DHT22;53622;0.000;0.000;2023-02-10T07:36:32;19.10;41.80
66708;DHT22;53622;0.000;0.000;2023-02-10T07:39:02;19.10;41.90
66708;DHT22;53622;0.000;0.000;2023-02-10T07:41:31;19.10;41.60
66708;DHT22;53622;0.000;0.000;2023-02-10T07:44:00;19.10;41.70
66708;DHT22;53622;0.000;0.000;2023-02-10T07:46:31;19.00;42.00
66708;DHT22;53622;0.000;0.000;2023-02-10T07:49:01;18.90;41.60
66708;DHT22;53622;0.000;0.000;2023-02-10T07:51:30;18.90;42.10
66708;DHT22;53622;0.000;0.000;2023-02-10T07:54:00;18.90;41.90
66708;DHT22;53622;0.000;0.000;2023-02-10T07:56:30;18.90;41.90
66708;DHT22;53622;0.000;0.000;2023-02-10T07:58:59;18.90;41.70
66708;DHT22;53622;0.000;0.000;2023-02-10T08:01:28;18.90;41.60
66708;DHT22;53622;0.000;0.000;2023-02-10T08:03:59;18.90;41.60
66708;DHT22;53622;0.000;0.000;2023-02-10T08:06:29;18.90;41.80
66708;DHT22;53622;0.000;0.000;2023-02-10T08:08:58;19.00;41.70
66708;DHT22;53622;0.000;0.000;2023-02-10T08:11:28;19.00;41.40
66708;DHT22;53622;0.000;0.000;2023-02-10T08:14:01;19.10;41.90
66708;DHT22;53622;0.000;0.000;2023-02-10T08:16:30;19.10;41.60
66708;DHT22;53622;0.000;0.000;2023-02-10T08:19:01;19.10;41.40
66708;DHT22;53622;0.000;0.000;2023-02-10T08:21:30;19.20;41.40
66708;DHT22;53622;0.000;0.000;2023-02-10T08:23:59;19.20;41.60
66708;DHT22;53622;0.000;0.000;2023-02-10T08:26:29;19.20;41.50
66708;DHT22;53622;0.000;0.000;2023-02-10T08:28:58;19.20;41.20
66708;DHT22;53622;0.000;0.000;2023-02-10T08:31:27;19.30;41.10
66708;DHT22;53622;0.000;0.000;2023-02-10T08:33:57;19.30;41.10
66708;DHT22;53622;0.000;0.000;2023-02-10T08:36:27;19.30;41.00
66708;DHT22;53622;0.000;0.000;2023-02-10T08:38:57;19.30;40.90
66708;DHT22;53622;0.000;0.000;2023-02-10T08:41:26;19.30;40.90
66708;DHT22;53622;0.000;0.000;2023-02-10T08:43:58;19.30;40.80
66708;DHT22;53622;0.000;0.000;2023-02-10T08:46:27;19.40;41.20
66708;DHT22;53622;0.000;0.000;2023-02-10T08:48:56;19.40;40.90
66708;DHT22;53622;0.000;0.000;2023-02-10T08:51:29;19.50;41.00
66708;DHT22;53622;0.000;0.000;2023-02-10T08:54:01;19.40;41.10
66708;DHT22;53622;0.000;0.000;2023-02-10T08:56:31;19.50;41.10
66708;DHT22;53622;0.000;0.000;2023-02-10T08:59:00;19.40;40.90
66708;DHT22;53622;0.000;0.000;2023-02-10T09:01:29;19.40;41.30
66708;DHT22;53622;0.000;0.000;2023-02-10T09:03:59;19.40;41.40
66708;DHT22;53622;0.000;0.000;2023-02-10T09:06:33;19.50;41.50
66708;DHT22;53622;0.000;0.000;2023-02-10T09:09:08;19.40;41.00
66708;DHT22;53622;0.000;0.000;2023-02-10T09:11:38;19.40;41.00
66708;DHT22;53622;0.000;0.000;2023-02-10T09:14:07;19.40;41.40
66708;DHT22;53622;0.000;0.000;2023-02-10T09:16:38;19.40;41.00
66708;DHT22;53622;0.000;0.000;2023-02-10T09:19:07;19.40;41.00
66708;DHT22;53622;0.000;0.000;2023-02-10T09:21:38;19.40;41.00
66708;DHT22;53622;0.000;0.000;2023-02-10T09:24:14;19.40;41.00
66708;DHT22;53622;0.000;0.000;2023-02-10T09:26:43;19.50;41.20
66708;DHT22;53622;0.000;0.000;2023-02-10T09:29:13;19.50;41.00
66708;DHT22;53622;0.000;0.000;2023-02-10T09:31:42;19.50;41.30
66708;DHT22;53622;0.000;0.000;2023-02-10T09:34:12;19.50;40.60
66708;DHT22;53622;0.000;0.000;2023-02-10T09:36:43;19.50;40.40
66708;DHT22;53622;0.000;0.000;2023-02-10T09:39:12;19.60;40.40
66708;DHT22;53622;0.000;0.000;2023-02-10T09:41:51;19.60;40.40
66708;DHT22;53622;0.000;0.000;2023-02-10T09:44:26;19.60;40.30
66708;DHT22;53622;0.000;0.000;2023-02-10T09:47:13;19.70;40.30
66708;DHT22;53622;0.000;0.000;2023-02-10T09:49:54;19.70;40.20
66708;DHT22;53622;0.000;0.000;2023-02-10T09:52:46;19.80;40.10
66708;DHT22;53622;0.000;0.000;2023-02-10T09:55:24;19.80;40.10
66708;DHT22;53622;0.000;0.000;2023-02-10T09:57:58;19.90;40.00
66708;DHT22;53622;0.000;0.000;2023-02-10T10:00:30;19.90;39.90
66708;DHT22;53622;0.000;0.000;2023-02-10T10:03:03;19.80;40.00
66708;DHT22;53622;0.000;0.000;2023-02-10T10:05:43;19.90;39.90
66708;DHT22;53622;0.000;0.000;2023-02-10T10:08:22;19.90;40.10
66708;DHT22;53622;0.000;0.000;2023-02-10T10:10:55;19.90;40.00
66708;DHT22;53622;0.000;0.000;2023-02-10T10:13:27;20.00;40.70
66708;DHT22;53622;0.000;0.000;2023-02-10T10:16:12;20.00;40.70
66708;DHT22;53622;0.000;0.000;2023-02-10T10:18:53;20.00;40.50
66708;DHT22;53622;0.000;0.000;2023-02-10T10:21:28;20.00;42.00
66708;DHT22;53622;0.000;0.000;2023-02-10T10:24:12;20.00;41.10
66708;DHT22;53622;0.000;0.000;2023-02-10T10:26:55;20.10;40.90
66708;DHT22;53622;0.000;0.000;2023-02-10T10:29:39;20.10;41.10
66708;DHT22;53622;0.000;0.000;2023-02-10T10:32:14;20.10;41.20
66708;DHT22;53622;0.000;0.000;2023-02-10T10:34:50;20.10;41.20
66708;DHT22;53622;0.000;0.000;2023-02-10T10:37:22;20.10;41.20
66708;DHT22;53622;0.000;0.000;2023-02-10T10:39:55;20.10;41.10
66708;DHT22;53622;0.000;0.000;2023-02-10T10:42:34;20.10;41.10
66708;DHT22;53622;0.000;0.000;2023-02-10T10:45:11;20.10;40.90
66708;DHT22;53622;0.000;0.000;2023-02-10T10:47:44;20.10;40.90
66708;DHT22;53622;0.000;0.000;2023-02-10T10:50:17;20.10;40.90
66708;DHT22;53622;0.000;0.000;2023-02-10T10:52:50;20.10;40.90
66708;DHT22;53622;0.000;0.000;2023-02-10T10:55:25;20.10;41.10
66708;DHT22;53622;0.000;0.000;2023-02-10T10:57:57;20.10;41.40
66708;DHT22;53622;0.000;0.000;2023-02-10T11:00:29;20.10;41.10
66708;DHT22;53622;0.000;0.000;2023-02-10T11:03:00;20.10;41.10
66708;DHT22;53622;0.000;0.000;2023-02-10T11:05:32;20.10;40.50
66708;DHT22;53622;0.000;0.000;2023-02-10T11:08:04;20.00;40.40
66708;DHT22;53622;0.000;0.000;2023-02-10T11:10:46;20.00;40.30
66708;DHT22;53622;0.000;0.000;2023-02-10T11:13:17;20.20;40.20
66708;DHT22;53622;0.000;0.000;2023-02-10T11:15:48;20.10;40.20
66708;DHT22;53622;0.000;0.000;2023-02-10T11:18:21;20.10;40.30
66708;DHT22;53622;0.000;0.000;2023-02-10T11:20:54;20.10;40.50
66708;DHT22;53622;0.000;0.000;2023-02-10T11:23:24;20.10;40.50
66708;DHT22;53622;0.000;0.000;2023-02-10T11:25:59;20.10;40.50
66708;DHT22;53622;0.000;0.000;2023-02-10T11:28:31;20.10;40.90
66708;DHT22;53622;0.000;0.000;2023-02-10T11:31:02;20.10;41.20
66708;DHT22;53622;0.000;0.000;2023-02-10T11:33:34;20.20;41.40
66708;DHT22;53622;0.000;0.000;2023-02-10T11:36:06;20.30;41.60
66708;DHT22;53622;0.000;0.000;2023-02-10T11:38:36;20.30;42.30
66708;DHT22;53622;0.000;0.000;2023-02-10T11:41:08;20.30;42.20
66708;DHT22;53622;0.000;0.000;2023-02-10T11:43:44;20.40;42.50
66708;DHT22;53622;0.000;0.000;2023-02-10T11:46:19;20.40;43.00
66708;DHT22;53622;0.000;0.000;2023-02-10T11:48:55;20.50;42.40
66708;DHT22;53622;0.000;0.000;2023-02-10T11:51:24;20.50;42.60
66708;DHT22;53622;0.000;0.000;2023-02-10T11:53:54;20.50;42.80
66708;DHT22;53622;0.000;0.000;2023-02-10T11:56:29;20.50;42.90
66708;DHT22;53622;0.000;0.000;2023-02-10T11:59:27;20.50;42.70
66708;DHT22;53622;0.000;0.000;2023-02-10T12:02:03;20.60;42.80
66708;DHT22;53622;0.000;0.000;2023-02-10T12:04:56;20.50;42.90
66708;DHT22;53622;0.000;0.000;2023-02-10T12:07:35;20.60;43.10
66708;DHT22;53622;0.000;0.000;2023-02-10T12:10:14;20.60;43.50
66708;DHT22;53622;0.000;0.000;2023-02-10T12:12:52;20.60;43.30
66708;DHT22;53622;0.000;0.000;2023-02-10T12:15:31;20.60;43.40
66708;DHT22;53622;0.000;0.000;2023-02-10T12:18:17;20.70;43.60
66708;DHT22;53622;0.000;0.000;2023-02-10T12:20:56;20.80;43.20
66708;DHT22;53622;0.000;0.000;2023-02-10T12:23:48;21.00;43.00
66708;DHT22;53622;0.000;0.000;2023-02-10T12:26:24;21.00;42.60
66708;DHT22;53622;0.000;0.000;2023-02-10T12:29:05;21.00;42.50
66708;DHT22;53622;0.000;0.000;2023-02-10T12:31:44;21.10;42.40
66708;DHT22;53622;0.000;0.000;2023-02-10T12:34:44;21.10;42.30
66708;DHT22;53622;0.000;0.000;2023-02-10T12:37:27;21.20;42.10
66708;DHT22;53622;0.000;0.000;2023-02-10T12:40:21;21.20;42.10
66708;DHT22;53622;0.000;0.000;2023-02-10T12:43:00;21.30;42.60
66708;DHT22;53622;0.000;0.000;2023-02-10T12:45:40;21.40;42.60
66708;DHT22;53622;0.000;0.000;2023-02-10T12:48:21;21.30;42.50
66708;DHT22;53622;0.000;0.000;2023-02-10T12:51:13;21.40;42.50
66708;DHT22;53622;0.000;0.000;2023-02-10T12:53:49;21.40;42.70
66708;DHT22;53622;0.000;0.000;2023-02-10T12:56:23;21.30;42.40
66708;DHT22;53622;0.000;0.000;2023-02-10T12:58:55;21.30;42.30
66708;DHT22;53622;0.000;0.000;2023-02-10T13:01:30;21.20;42.10
66708;DHT22;53622;0.000;0.000;2023-02-10T13:04:08;21.20;42.40
66708;DHT22;53622;0.000;0.000;2023-02-10T13:06:44;21.20;42.00
66708;DHT22;53622;0.000;0.000;2023-02-10T13:09:21;21.10;41.90
66708;DHT22;53622;0.000;0.000;2023-02-10T13:12:04;21.10;41.90
66708;DHT22;53622;0.000;0.000;2023-02-10T13:14:35;21.10;41.90
66708;DHT22;53622;0.000;0.000;2023-02-10T13:17:07;21.10;42.00
66708;DHT22;53622;0.000;0.000;2023-02-10T13:19:50;21.10;42.10
66708;DHT22;53622;0.000;0.000;2023-02-10T13:22:31;21.10;42.10
66708;DHT22;53622;0.000;0.000;2023-02-10T13:25:11;21.00;42.00
66708;DHT22;53622;0.000;0.000;2023-02-10T13:27:50;21.00;42.00
66708;DHT22;53622;0.000;0.000;2023-02-10T13:30:42;21.00;42.00
66708;DHT22;53622;0.000;0.000;2023-02-10T13:33:20;21.00;42.00
66708;DHT22;53622;0.000;0.000;2023-02-10T13:35:52;21.00;42.00
66708;DHT22;53622;0.000;0.000;2023-02-10T13:38:22;21.00;42.00
66708;DHT22;53622;0.000;0.000;2023-02-10T13:40:57;20.90;42.00
66708;DHT22;53622;0.000;0.000;2023-02-10T13:43:55;20.90;41.90
66708;DHT22;53622;0.000;0.000;2023-02-10T13:46:28;20.90;41.90
66708;DHT22;53622;0.000;0.000;2023-02-10T13:49:01;20.80;41.70
66708;DHT22;53622;0.000;0.000;2023-02-10T13:51:32;20.80;41.90
66708;DHT22;53622;0.000;0.000;2023-02-10T13:54:03;20.80;41.70
66708;DHT22;53622;0.000;0.000;2023-02-10T13:56:33;20.80;41.70
66708;DHT22;53622;0.000;0.000;2023-02-10T13:59:05;20.80;41.80
66708;DHT22;53622;0.000;0.000;2023-02-10T14:01:38;20.80;41.80
66708;DHT22;53622;0.000;0.000;2023-02-10T14:04:27;20.80;41.80
66708;DHT22;53622;0.000;0.000;2023-02-10T14:06:57;20.80;41.70
66708;DHT22;53622;0.000;0.000;2023-02-10T14:09:33;20.80;41.80
66708;DHT22;53622;0.000;0.000;2023-02-10T14:12:22;20.80;41.70
66708;DHT22;53622;0.000;0.000;2023-02-10T14:14:52;20.80;41.60
66708;DHT22;53622;0.000;0.000;2023-02-10T14:17:22;20.80;41.60
66708;DHT22;53622;0.000;0.000;2023-02-10T14:19:58;20.80;41.60
66708;DHT22;53622;0.000;0.000;2023-02-10T14:22:32;20.80;41.60
66708;DHT22;53622;0.000;0.000;2023-02-10T14:25:17;20.80;41.60
66708;DHT22;53622;0.000;0.000;2023-02-10T14:27:48;20.80;41.60
66708;DHT22;53622;0.000;0.000;2023-02-10T14:30:21;20.80;41.50
66708;DHT22;53622;0.000;0.000;2023-02-10T14:32:52;20.80;41.50
66708;DHT22;53622;0.000;0.000;2023-02-10T14:35:25;20.80;41.50
66708;DHT22;53622;0.000;0.000;2023-02-10T14:37:58;20.70;41.50
66708;DHT22;53622;0.000;0.000;2023-02-10T14:40:29;20.70;41.30
66708;DHT22;53622;0.000;0.000;2023-02-10T14:43:00;20.70;41.10
66708;DHT22;53622;0.000;0.000;2023-02-10T14:45:30;20.70;41.10
66708;DHT22;53622;0.000;0.000;2023-02-10T14:48:05;20.60;41.10
66708;DHT22;53622;0.000;0.000;2023-02-10T14:50:37;20.60;41.30
66708;DHT22;53622;0.000;0.000;2023-02-10T14:53:16;20.60;41.20
66708;DHT22;53622;0.000;0.000;2023-02-10T14:55:53;20.60;41.20
66708;DHT22;53622;0.000;0.000;2023-02-10T14:58:23;20.50;41.10
66708;DHT22;53622;0.000;0.000;2023-02-10T15:00:57;20.50;41.00
66708;DHT22;53622;0.000;0.000;2023-02-10T15:03:27;20.40;41.30
66708;DHT22;53622;0.000;0.000;2023-02-10T15:05:59;20.40;41.10
66708;DHT22;53622;0.000;0.000;2023-02-10T15:08:37;20.40;41.40
66708;DHT22;53622;0.000;0.000;2023-02-10T15:11:13;20.40;41.10
66708;DHT22;53622;0.000;0.000;2023-02-10T15:13:46;20.40;41.10
66708;DHT22;53622;0.000;0.000;2023-02-10T15:16:17;20.30;40.90
66708;DHT22;53622;0.000;0.000;2023-02-10T15:18:49;20.30;41.00
66708;DHT22;53622;0.000;0.000;2023-02-10T15:21:27;20.30;41.00
66708;DHT22;53622;0.000;0.000;2023-02-10T15:23:57;20.30;40.90
66708;DHT22;53622;0.000;0.000;2023-02-10T15:26:27;20.30;40.90
66708;DHT22;53622;0.000;0.000;2023-02-10T15:29:00;20.30;40.70
66708;DHT22;53622;0.000;0.000;2023-02-10T15:31:30;20.30;40.70
66708;DHT22;53622;0.000;0.000;2023-02-10T15:34:02;20.30;40.60
66708;DHT22;53622;0.000;0.000;2023-02-10T15:36:35;20.30;40.60
66708;DHT22;53622;0.000;0.000;2023-02-10T15:39:13;20.30;40.50
66708;DHT22;53622;0.000;0.000;2023-02-10T15:42:02;20.30;40.40
66708;DHT22;53622;0.000;0.000;2023-02-10T15:44:35;20.30;40.30
66708;DHT22;53622;0.000;0.000;2023-02-10T15:47:19;20.30;40.60
66708;DHT22;53622;0.000;0.000;2023-02-10T15:49:53;20.40;40.50
66708;DHT22;53622;0.000;0.000;2023-02-10T15:52:28;20.50;40.50
66708;DHT22;53622;0.000;0.000;2023-02-10T15:55:00;20.50;40.50
66708;DHT22;53622;0.000;0.000;2023-02-10T15:57:29;20.60;40.60
66708;DHT22;53622;0.000;0.000;2023-02-10T15:59:59;20.60;40.60
66708;DHT22;53622;0.000;0.000;2023-02-10T16:02:35;20.60;40.60
66708;DHT22;53622;0.000;0.000;2023-02-10T16:05:05;20.60;40.60
66708;DHT22;53622;0.000;0.000;2023-02-10T16:07:36;20.60;40.70
66708;DHT22;53622;0.000;0.000;2023-02-10T16:10:06;20.60;40.70
66708;DHT22;53622;0.000;0.000;2023-02-10T16:12:42;20.60;40.80
66708;DHT22;53622;0.000;0.000;2023-02-10T16:15:13;20.60;40.90
66708;DHT22;53622;0.000;0.000;2023-02-10T16:17:45;20.60;40.90
66708;DHT22;53622;0.000;0.000;2023-02-10T16:20:17;20.50;40.70